Check out our new PWSWeather beta!
PWSweather.com
Personal Weather Stations
Station Observations
PICKERING
North Yorkshire, PickeringGB

North YorkshirePickeringGB

Lat: 54.2494, Lon: -0.7725

Elevation: 192

Station Type: Oregon Scientific WMR100

High Low Average
Temperature 94.6°F34.8°C 55.0°F12.8°C 72.0°F22.2°C
Dew Point 68.0°F20.0°C 48.2°F9.0°C 54.1°F12.3°C
Winds 7.2 mph 11.6 kmh Calm Calm 3.0 mph E4.8 kmh E
Wind Gusts 11.2 mph18.0 kmh -- 5.0 mph8.0 kmh
Humidity 79% 34% 55%
Pressure 30.09 in1019.0 mb 30.04 in1017.3 mb -
Precipitation 0.00 in0.0 mm - -
Hour Temp Dew Point Humidity Winds Wind Gusts Pressure Precip Precip Rate Daily Precip Total
12:00 AM 59.9°F15.5°C 48.2°F9.0°C 66% 3.1 mph NE5.0 kmh NE 3.8 mph6.1 kmh 30.07 in1018.3 mb 0.00 in0.0 mm 0.00 in0.0 mm 0.00 in0.0 mm
12:05 AM 59.7°F15.4°C 48.2°F9.0°C 66% 3.3 mph NE5.3 kmh NE 4.0 mph6.4 kmh 30.07 in1018.3 mb 0.00 in0.0 mm 0.00 in0.0 mm 0.00 in0.0 mm
12:10 AM 59.7°F15.4°C 48.2°F9.0°C 66% 3.4 mph NE5.5 kmh NE 4.0 mph6.4 kmh 30.07 in1018.3 mb 0.00 in0.0 mm 0.00 in0.0 mm 0.00 in0.0 mm
12:15 AM 59.7°F15.4°C 48.2°F9.0°C 66% 3.1 mph NE5.0 kmh NE 4.0 mph6.4 kmh 30.07 in1018.3 mb 0.00 in0.0 mm 0.00 in0.0 mm 0.00 in0.0 mm
12:20 AM 59.5°F15.3°C 48.2°F9.0°C 67% 2.7 mph NNE4.3 kmh NNE 3.4 mph5.5 kmh 30.07 in1018.3 mb 0.00 in0.0 mm 0.00 in0.0 mm 0.00 in0.0 mm
12:25 AM 59.5°F15.3°C 48.2°F9.0°C 67% 2.9 mph NE4.7 kmh NE 3.4 mph5.5 kmh 30.07 in1018.3 mb 0.00 in0.0 mm 0.00 in0.0 mm 0.00 in0.0 mm
12:30 AM 59.4°F15.2°C 48.2°F9.0°C 67% 2.8 mph NE4.5 kmh NE 3.6 mph5.8 kmh 30.07 in1018.3 mb 0.00 in0.0 mm 0.00 in0.0 mm 0.00 in0.0 mm
12:35 AM 59.4°F15.2°C 48.2°F9.0°C 67% 2.8 mph NE4.5 kmh NE 3.6 mph5.8 kmh 30.07 in1018.3 mb 0.00 in0.0 mm 0.00 in0.0 mm 0.00 in0.0 mm
12:40 AM 59.4°F15.2°C 50.0°F10.0°C 68% 2.9 mph NE4.7 kmh NE 3.6 mph5.8 kmh 30.04 in1017.3 mb 0.00 in0.0 mm 0.00 in0.0 mm 0.00 in0.0 mm
12:45 AM 59.2°F15.1°C 48.2°F9.0°C 68% 2.7 mph NE4.3 kmh NE 3.1 mph5.0 kmh 30.04 in1017.3 mb 0.00 in0.0 mm 0.00 in0.0 mm 0.00 in0.0 mm
12:50 AM 59.2°F15.1°C 48.2°F9.0°C 68% 2.6 mph NE4.2 kmh NE 3.1 mph5.0 kmh 30.04 in1017.3 mb 0.00 in0.0 mm 0.00 in0.0 mm 0.00 in0.0 mm
12:55 AM 59.0°F15.0°C 48.2°F9.0°C 68% 2.6 mph NE4.2 kmh NE 3.4 mph5.5 kmh 30.07 in1018.3 mb 0.00 in0.0 mm 0.00 in0.0 mm 0.00 in0.0 mm
01:00 AM 59.0°F15.0°C 48.2°F9.0°C 68% 2.1 mph NE3.4 kmh NE 3.4 mph5.5 kmh 30.07 in1018.3 mb 0.00 in0.0 mm 0.00 in0.0 mm 0.00 in0.0 mm
01:05 AM 59.0°F15.0°C 48.2°F9.0°C 68% 2.0 mph NE3.2 kmh NE 3.6 mph5.8 kmh 30.07 in1018.3 mb 0.00 in0.0 mm 0.00 in0.0 mm 0.00 in0.0 mm
01:10 AM 59.0°F15.0°C 48.2°F9.0°C 68% 2.1 mph NE3.4 kmh NE 3.6 mph5.8 kmh 30.04 in1017.3 mb 0.00 in0.0 mm 0.00 in0.0 mm 0.00 in0.0 mm
01:15 AM 58.6°F14.8°C 48.2°F9.0°C 68% 1.6 mph NE2.6 kmh NE 2.5 mph4.0 kmh 30.04 in1017.3 mb 0.00 in0.0 mm 0.00 in0.0 mm 0.00 in0.0 mm
01:20 AM 58.5°F14.7°C 48.2°F9.0°C 68% 1.6 mph NNE2.6 kmh NNE 2.5 mph4.0 kmh 30.04 in1017.3 mb 0.00 in0.0 mm 0.00 in0.0 mm 0.00 in0.0 mm
01:25 AM 58.5°F14.7°C 48.2°F9.0°C 69% 1.9 mph NNE3.1 kmh NNE 2.5 mph4.0 kmh 30.04 in1017.3 mb 0.00 in0.0 mm 0.00 in0.0 mm 0.00 in0.0 mm
01:30 AM 58.3°F14.6°C 48.2°F9.0°C 69% 1.0 mph NNE1.6 kmh NNE 2.2 mph3.5 kmh 30.04 in1017.3 mb 0.00 in0.0 mm 0.00 in0.0 mm 0.00 in0.0 mm
01:35 AM 58.1°F14.5°C 48.2°F9.0°C 69% 0.3 mph NNE0.5 kmh NNE 2.2 mph3.5 kmh 30.04 in1017.3 mb 0.00 in0.0 mm 0.00 in0.0 mm 0.00 in0.0 mm
01:40 AM 57.9°F14.4°C 48.2°F9.0°C 69% 0.6 mph NNE1.0 kmh NNE 2.5 mph4.0 kmh 30.04 in1017.3 mb 0.00 in0.0 mm 0.00 in0.0 mm 0.00 in0.0 mm
01:45 AM 57.7°F14.3°C 48.2°F9.0°C 69% 1.7 mph NE2.7 kmh NE 3.4 mph5.5 kmh 30.04 in1017.3 mb 0.00 in0.0 mm 0.00 in0.0 mm 0.00 in0.0 mm
01:50 AM 57.7°F14.3°C 48.2°F9.0°C 69% 2.3 mph NE3.7 kmh NE 3.4 mph5.5 kmh 30.04 in1017.3 mb 0.00 in0.0 mm 0.00 in0.0 mm 0.00 in0.0 mm
01:55 AM 57.6°F14.2°C 48.2°F9.0°C 69% 2.6 mph NE4.2 kmh NE 3.6 mph5.8 kmh 30.04 in1017.3 mb 0.00 in0.0 mm 0.00 in0.0 mm 0.00 in0.0 mm
02:00 AM 57.6°F14.2°C 48.2°F9.0°C 70% 2.6 mph NE4.2 kmh NE 3.6 mph5.8 kmh 30.04 in1017.3 mb 0.00 in0.0 mm 0.00 in0.0 mm 0.00 in0.0 mm
02:05 AM 57.6°F14.2°C 48.2°F9.0°C 70% 2.5 mph NE4.0 kmh NE 3.6 mph5.8 kmh 30.04 in1017.3 mb 0.00 in0.0 mm 0.00 in0.0 mm 0.00 in0.0 mm
02:10 AM 57.6°F14.2°C 48.2°F9.0°C 70% 2.6 mph NE4.2 kmh NE 2.9 mph4.7 kmh 30.04 in1017.3 mb 0.00 in0.0 mm 0.00 in0.0 mm 0.00 in0.0 mm
02:15 AM 57.4°F14.1°C 48.2°F9.0°C 70% 2.4 mph NE3.9 kmh NE 3.1 mph5.0 kmh 30.04 in1017.3 mb 0.00 in0.0 mm 0.00 in0.0 mm 0.00 in0.0 mm
02:20 AM 57.4°F14.1°C 48.2°F9.0°C 70% 2.3 mph NNE3.7 kmh NNE 3.1 mph5.0 kmh 30.04 in1017.3 mb 0.00 in0.0 mm 0.00 in0.0 mm 0.00 in0.0 mm
02:25 AM 57.2°F14.0°C 48.2°F9.0°C 70% 1.9 mph NNE3.1 kmh NNE 2.7 mph4.3 kmh 30.04 in1017.3 mb 0.00 in0.0 mm 0.00 in0.0 mm 0.00 in0.0 mm
02:30 AM 56.8°F13.8°C 48.2°F9.0°C 70% 2.4 mph NE3.9 kmh NE 4.3 mph6.9 kmh 30.04 in1017.3 mb 0.00 in0.0 mm 0.00 in0.0 mm 0.00 in0.0 mm
02:35 AM 56.8°F13.8°C 48.2°F9.0°C 70% 3.0 mph NE4.8 kmh NE 4.3 mph6.9 kmh 30.04 in1017.3 mb 0.00 in0.0 mm 0.00 in0.0 mm 0.00 in0.0 mm
02:40 AM 57.0°F13.9°C 48.2°F9.0°C 71% 2.4 mph NE3.9 kmh NE 4.3 mph6.9 kmh 30.04 in1017.3 mb 0.00 in0.0 mm 0.00 in0.0 mm 0.00 in0.0 mm
02:45 AM 56.8°F13.8°C 48.2°F9.0°C 71% 2.0 mph NE3.2 kmh NE 2.9 mph4.7 kmh 30.04 in1017.3 mb 0.00 in0.0 mm 0.00 in0.0 mm 0.00 in0.0 mm
02:50 AM 56.8°F13.8°C 48.2°F9.0°C 71% 2.4 mph NE3.9 kmh NE 2.9 mph4.7 kmh 30.04 in1017.3 mb 0.00 in0.0 mm 0.00 in0.0 mm 0.00 in0.0 mm
02:55 AM 56.8°F13.8°C 48.2°F9.0°C 71% 2.9 mph NE4.7 kmh NE 3.8 mph6.1 kmh 30.04 in1017.3 mb 0.00 in0.0 mm 0.00 in0.0 mm 0.00 in0.0 mm
03:00 AM 57.0°F13.9°C 48.2°F9.0°C 72% 2.8 mph NE4.5 kmh NE 3.8 mph6.1 kmh 30.04 in1017.3 mb 0.00 in0.0 mm 0.00 in0.0 mm 0.00 in0.0 mm
03:05 AM 56.8°F13.8°C 48.2°F9.0°C 72% 2.5 mph NNE4.0 kmh NNE 2.9 mph4.7 kmh 30.04 in1017.3 mb 0.00 in0.0 mm 0.00 in0.0 mm 0.00 in0.0 mm
03:10 AM 56.7°F13.7°C 48.2°F9.0°C 71% 2.5 mph NE4.0 kmh NE 3.1 mph5.0 kmh 30.04 in1017.3 mb 0.00 in0.0 mm 0.00 in0.0 mm 0.00 in0.0 mm
03:15 AM 56.3°F13.5°C 48.2°F9.0°C 72% 2.6 mph NE4.2 kmh NE 3.4 mph5.5 kmh 30.04 in1017.3 mb 0.00 in0.0 mm 0.00 in0.0 mm 0.00 in0.0 mm
03:20 AM 56.7°F13.7°C 48.2°F9.0°C 73% 2.7 mph NE4.3 kmh NE 3.4 mph5.5 kmh 30.04 in1017.3 mb 0.00 in0.0 mm 0.00 in0.0 mm 0.00 in0.0 mm
03:25 AM 56.7°F13.7°C 48.2°F9.0°C 73% 2.8 mph NE4.5 kmh NE 3.4 mph5.5 kmh 30.04 in1017.3 mb 0.00 in0.0 mm 0.00 in0.0 mm 0.00 in0.0 mm
03:30 AM 56.7°F13.7°C 48.2°F9.0°C 73% 2.8 mph NE4.5 kmh NE 3.4 mph5.5 kmh 30.04 in1017.3 mb 0.00 in0.0 mm 0.00 in0.0 mm 0.00 in0.0 mm
03:35 AM 56.5°F13.6°C 48.2°F9.0°C 72% 2.9 mph NE4.7 kmh NE 3.4 mph5.5 kmh 30.04 in1017.3 mb 0.00 in0.0 mm 0.00 in0.0 mm 0.00 in0.0 mm
03:40 AM 56.5°F13.6°C 48.2°F9.0°C 73% 2.5 mph NE4.0 kmh NE 3.4 mph5.5 kmh 30.04 in1017.3 mb 0.00 in0.0 mm 0.00 in0.0 mm 0.00 in0.0 mm
03:45 AM 56.3°F13.5°C 48.2°F9.0°C 73% 2.2 mph NE3.5 kmh NE 2.7 mph4.3 kmh 30.04 in1017.3 mb 0.00 in0.0 mm 0.00 in0.0 mm 0.00 in0.0 mm
03:50 AM 56.1°F13.4°C 48.2°F9.0°C 72% 2.1 mph NNE3.4 kmh NNE 2.9 mph4.7 kmh 30.04 in1017.3 mb 0.00 in0.0 mm 0.00 in0.0 mm 0.00 in0.0 mm
03:55 AM 56.1°F13.4°C 48.2°F9.0°C 73% 1.9 mph NNE3.1 kmh NNE 2.9 mph4.7 kmh 30.04 in1017.3 mb 0.00 in0.0 mm 0.00 in0.0 mm 0.00 in0.0 mm
04:00 AM 55.9°F13.3°C 48.2°F9.0°C 72% 1.5 mph NNE2.4 kmh NNE 2.7 mph4.3 kmh 30.04 in1017.3 mb 0.00 in0.0 mm 0.00 in0.0 mm 0.00 in0.0 mm
04:05 AM 55.9°F13.3°C 48.2°F9.0°C 72% 0.9 mph NNE1.4 kmh NNE 2.7 mph4.3 kmh 30.04 in1017.3 mb 0.00 in0.0 mm 0.00 in0.0 mm 0.00 in0.0 mm
04:10 AM 55.8°F13.2°C 48.2°F9.0°C 73% 0.6 mph NNE1.0 kmh NNE 1.6 mph2.6 kmh 30.04 in1017.3 mb 0.00 in0.0 mm 0.00 in0.0 mm 0.00 in0.0 mm
04:15 AM 55.8°F13.2°C 48.2°F9.0°C 73% 1.2 mph NNE1.9 kmh NNE 2.0 mph3.2 kmh 30.04 in1017.3 mb 0.00 in0.0 mm 0.00 in0.0 mm 0.00 in0.0 mm
04:20 AM 55.8°F13.2°C 48.2°F9.0°C 73% 1.5 mph NNE2.4 kmh NNE 2.5 mph4.0 kmh 30.04 in1017.3 mb 0.00 in0.0 mm 0.00 in0.0 mm 0.00 in0.0 mm
04:25 AM 55.8°F13.2°C 48.2°F9.0°C 73% 1.9 mph NE3.1 kmh NE 3.1 mph5.0 kmh 30.04 in1017.3 mb 0.00 in0.0 mm 0.00 in0.0 mm 0.00 in0.0 mm
04:30 AM 55.8°F13.2°C 48.2°F9.0°C 73% 2.6 mph NE4.2 kmh NE 3.6 mph5.8 kmh 30.04 in1017.3 mb 0.00 in0.0 mm 0.00 in0.0 mm 0.00 in0.0 mm
04:35 AM 55.6°F13.1°C 48.2°F9.0°C 73% 2.7 mph NNE4.3 kmh NNE 3.6 mph5.8 kmh 30.04 in1017.3 mb 0.00 in0.0 mm 0.00 in0.0 mm 0.00 in0.0 mm
04:40 AM 55.6°F13.1°C 48.2°F9.0°C 73% 2.3 mph NNE3.7 kmh NNE 3.4 mph5.5 kmh 30.04 in1017.3 mb 0.00 in0.0 mm 0.00 in0.0 mm 0.00 in0.0 mm
04:45 AM 55.2°F12.9°C 48.2°F9.0°C 73% 1.9 mph NE3.1 kmh NE 2.7 mph4.3 kmh 30.04 in1017.3 mb 0.00 in0.0 mm 0.00 in0.0 mm 0.00 in0.0 mm
04:50 AM 55.4°F13.0°C 48.2°F9.0°C 73% 1.9 mph NE3.1 kmh NE 2.9 mph4.7 kmh 30.04 in1017.3 mb 0.00 in0.0 mm 0.00 in0.0 mm 0.00 in0.0 mm
04:55 AM 55.4°F13.0°C 48.2°F9.0°C 74% 2.8 mph NE4.5 kmh NE 4.3 mph6.9 kmh 30.04 in1017.3 mb 0.00 in0.0 mm 0.00 in0.0 mm 0.00 in0.0 mm
05:00 AM 55.2°F12.9°C 48.2°F9.0°C 74% 2.4 mph NE3.9 kmh NE 4.3 mph6.9 kmh 30.04 in1017.3 mb 0.00 in0.0 mm 0.00 in0.0 mm 0.00 in0.0 mm
05:05 AM 55.2°F12.9°C 48.2°F9.0°C 74% 1.3 mph NE2.1 kmh NE 3.1 mph5.0 kmh 30.04 in1017.3 mb 0.00 in0.0 mm 0.00 in0.0 mm 0.00 in0.0 mm
05:10 AM 55.2°F12.9°C 48.2°F9.0°C 74% 1.0 mph NNE1.6 kmh NNE 2.0 mph3.2 kmh 30.04 in1017.3 mb 0.00 in0.0 mm 0.00 in0.0 mm 0.00 in0.0 mm
05:15 AM 55.2°F12.9°C 48.2°F9.0°C 74% 0.9 mph NE1.4 kmh NE 2.0 mph3.2 kmh 30.04 in1017.3 mb 0.00 in0.0 mm 0.00 in0.0 mm 0.00 in0.0 mm
05:20 AM 55.0°F12.8°C 48.2°F9.0°C 73% 0.4 mph NE0.6 kmh NE 2.0 mph3.2 kmh 30.04 in1017.3 mb 0.00 in0.0 mm 0.00 in0.0 mm 0.00 in0.0 mm
05:25 AM 55.2°F12.9°C 48.2°F9.0°C 74% Calm Calm -- 30.04 in1017.3 mb 0.00 in0.0 mm 0.00 in0.0 mm 0.00 in0.0 mm
05:30 AM 55.2°F12.9°C 48.2°F9.0°C 74% 0.2 mph N0.3 kmh N 1.1 mph1.8 kmh 30.04 in1017.3 mb 0.00 in0.0 mm 0.00 in0.0 mm 0.00 in0.0 mm
05:35 AM 55.4°F13.0°C 48.2°F9.0°C 74% 0.1 mph N0.2 kmh N 1.1 mph1.8 kmh 30.04 in1017.3 mb 0.00 in0.0 mm 0.00 in0.0 mm 0.00 in0.0 mm
05:40 AM 55.4°F13.0°C 48.2°F9.0°C 74% 0.1 mph NNE0.2 kmh NNE 0.9 mph1.4 kmh 30.07 in1018.3 mb 0.00 in0.0 mm 0.00 in0.0 mm 0.00 in0.0 mm
05:45 AM 55.6°F13.1°C 48.2°F9.0°C 74% 0.5 mph NNE0.8 kmh NNE 2.0 mph3.2 kmh 30.07 in1018.3 mb 0.00 in0.0 mm 0.00 in0.0 mm 0.00 in0.0 mm
05:50 AM 55.6°F13.1°C 48.2°F9.0°C 74% 1.1 mph NNE1.8 kmh NNE 2.0 mph3.2 kmh 30.07 in1018.3 mb 0.00 in0.0 mm 0.00 in0.0 mm 0.00 in0.0 mm
05:55 AM 55.8°F13.2°C 48.2°F9.0°C 74% 1.4 mph NNE2.3 kmh NNE 2.5 mph4.0 kmh 30.07 in1018.3 mb 0.00 in0.0 mm 0.00 in0.0 mm 0.00 in0.0 mm
06:00 AM 55.9°F13.3°C 48.2°F9.0°C 75% 1.3 mph NNE2.1 kmh NNE 2.5 mph4.0 kmh 30.07 in1018.3 mb 0.00 in0.0 mm 0.00 in0.0 mm 0.00 in0.0 mm
06:05 AM 55.9°F13.3°C 48.2°F9.0°C 75% 0.9 mph NNE1.4 kmh NNE 2.0 mph3.2 kmh 30.07 in1018.3 mb 0.00 in0.0 mm 0.00 in0.0 mm 0.00 in0.0 mm
06:10 AM 56.1°F13.4°C 48.2°F9.0°C 75% 1.4 mph NNE2.3 kmh NNE 2.2 mph3.5 kmh 30.07 in1018.3 mb 0.00 in0.0 mm 0.00 in0.0 mm 0.00 in0.0 mm
06:15 AM 56.3°F13.5°C 50.0°F10.0°C 75% 1.7 mph NNE2.7 kmh NNE 2.2 mph3.5 kmh 30.07 in1018.3 mb 0.00 in0.0 mm 0.00 in0.0 mm 0.00 in0.0 mm
06:20 AM 56.5°F13.6°C 50.0°F10.0°C 75% 1.4 mph NE2.3 kmh NE 2.2 mph3.5 kmh 30.07 in1018.3 mb 0.00 in0.0 mm 0.00 in0.0 mm 0.00 in0.0 mm
06:25 AM 56.8°F13.8°C 50.0°F10.0°C 76% 1.8 mph NE2.9 kmh NE 2.5 mph4.0 kmh 30.07 in1018.3 mb 0.00 in0.0 mm 0.00 in0.0 mm 0.00 in0.0 mm
06:30 AM 57.0°F13.9°C 50.0°F10.0°C 76% 2.2 mph NE3.5 kmh NE 2.9 mph4.7 kmh 30.07 in1018.3 mb 0.00 in0.0 mm 0.00 in0.0 mm 0.00 in0.0 mm
06:35 AM 57.2°F14.0°C 50.0°F10.0°C 76% 2.2 mph NE3.5 kmh NE 2.9 mph4.7 kmh 30.07 in1018.3 mb 0.00 in0.0 mm 0.00 in0.0 mm 0.00 in0.0 mm
06:40 AM 57.4°F14.1°C 50.0°F10.0°C 76% 1.8 mph NE2.9 kmh NE 2.7 mph4.3 kmh 30.07 in1018.3 mb 0.00 in0.0 mm 0.00 in0.0 mm 0.00 in0.0 mm
06:45 AM 57.6°F14.2°C 50.0°F10.0°C 76% 1.5 mph NE2.4 kmh NE 2.5 mph4.0 kmh 30.07 in1018.3 mb 0.00 in0.0 mm 0.00 in0.0 mm 0.00 in0.0 mm
06:50 AM 57.7°F14.3°C 51.8°F11.0°C 77% 1.6 mph NE2.6 kmh NE 2.5 mph4.0 kmh 30.07 in1018.3 mb 0.00 in0.0 mm 0.00 in0.0 mm 0.00 in0.0 mm
06:55 AM 57.9°F14.4°C 51.8°F11.0°C 77% 1.8 mph NE2.9 kmh NE 2.5 mph4.0 kmh 30.07 in1018.3 mb 0.00 in0.0 mm 0.00 in0.0 mm 0.00 in0.0 mm
07:00 AM 58.3°F14.6°C 51.8°F11.0°C 77% 1.7 mph NE2.7 kmh NE 2.5 mph4.0 kmh 30.07 in1018.3 mb 0.00 in0.0 mm 0.00 in0.0 mm 0.00 in0.0 mm
07:05 AM 58.5°F14.7°C 51.8°F11.0°C 78% 0.7 mph NE1.1 kmh NE 2.5 mph4.0 kmh 30.07 in1018.3 mb 0.00 in0.0 mm 0.00 in0.0 mm 0.00 in0.0 mm
07:10 AM 58.8°F14.9°C 51.8°F11.0°C 78% Calm Calm -- 30.07 in1018.3 mb 0.00 in0.0 mm 0.00 in0.0 mm 0.00 in0.0 mm
07:15 AM 59.0°F15.0°C 51.8°F11.0°C 78% Calm Calm -- 30.07 in1018.3 mb 0.00 in0.0 mm 0.00 in0.0 mm 0.00 in0.0 mm
07:20 AM 59.5°F15.3°C 53.6°F12.0°C 78% Calm Calm -- 30.07 in1018.3 mb 0.00 in0.0 mm 0.00 in0.0 mm 0.00 in0.0 mm
07:25 AM 59.9°F15.5°C 53.6°F12.0°C 78% Calm Calm -- 30.07 in1018.3 mb 0.00 in0.0 mm 0.00 in0.0 mm 0.00 in0.0 mm
07:30 AM 60.8°F16.0°C 53.6°F12.0°C 78% Calm Calm -- 30.07 in1018.3 mb 0.00 in0.0 mm 0.00 in0.0 mm 0.00 in0.0 mm
07:35 AM 61.7°F16.5°C 55.4°F13.0°C 78% Calm Calm -- 30.07 in1018.3 mb 0.00 in0.0 mm 0.00 in0.0 mm 0.00 in0.0 mm
07:40 AM 62.2°F16.8°C 55.4°F13.0°C 79% Calm Calm -- 30.07 in1018.3 mb 0.00 in0.0 mm 0.00 in0.0 mm 0.00 in0.0 mm
07:45 AM 62.4°F16.9°C 55.4°F13.0°C 78% Calm Calm -- 30.07 in1018.3 mb 0.00 in0.0 mm 0.00 in0.0 mm 0.00 in0.0 mm
07:50 AM 63.0°F17.2°C 55.4°F13.0°C 77% Calm Calm -- 30.07 in1018.3 mb 0.00 in0.0 mm 0.00 in0.0 mm 0.00 in0.0 mm
07:55 AM 63.5°F17.5°C 57.2°F14.0°C 77% 0.1 mph E0.2 kmh E 1.1 mph1.8 kmh 30.07 in1018.3 mb 0.00 in0.0 mm 0.00 in0.0 mm 0.00 in0.0 mm
08:00 AM 64.0°F17.8°C 55.4°F13.0°C 76% 0.1 mph E0.2 kmh E 1.1 mph1.8 kmh 30.07 in1018.3 mb 0.00 in0.0 mm 0.00 in0.0 mm 0.00 in0.0 mm
08:05 AM 64.6°F18.1°C 57.2°F14.0°C 75% 0.6 mph SSE1.0 kmh SSE 2.2 mph3.5 kmh 30.07 in1018.3 mb 0.00 in0.0 mm 0.00 in0.0 mm 0.00 in0.0 mm
08:10 AM 64.8°F18.2°C 57.2°F14.0°C 75% 1.2 mph SSE1.9 kmh SSE 2.5 mph4.0 kmh 30.07 in1018.3 mb 0.00 in0.0 mm 0.00 in0.0 mm 0.00 in0.0 mm
08:15 AM 64.9°F18.3°C 57.2°F14.0°C 75% 1.2 mph SE1.9 kmh SE 2.5 mph4.0 kmh 30.07 in1018.3 mb 0.00 in0.0 mm 0.00 in0.0 mm 0.00 in0.0 mm
08:20 AM 65.5°F18.6°C 57.2°F14.0°C 75% 1.2 mph SE1.9 kmh SE 2.5 mph4.0 kmh 30.07 in1018.3 mb 0.00 in0.0 mm 0.00 in0.0 mm 0.00 in0.0 mm
08:25 AM 66.7°F19.3°C 59.0°F15.0°C 74% 0.6 mph SE1.0 kmh SE 2.2 mph3.5 kmh 30.07 in1018.3 mb 0.00 in0.0 mm 0.00 in0.0 mm 0.00 in0.0 mm
08:30 AM 67.6°F19.8°C 59.0°F15.0°C 74% Calm Calm -- 30.07 in1018.3 mb 0.00 in0.0 mm 0.00 in0.0 mm 0.00 in0.0 mm
08:35 AM 68.7°F20.4°C 59.0°F15.0°C 72% 0.1 mph S0.2 kmh S 1.1 mph1.8 kmh 30.07 in1018.3 mb 0.00 in0.0 mm 0.00 in0.0 mm 0.00 in0.0 mm
08:40 AM 69.3°F20.7°C 59.0°F15.0°C 70% 0.5 mph SE0.8 kmh SE 2.9 mph4.7 kmh 30.07 in1018.3 mb 0.00 in0.0 mm 0.00 in0.0 mm 0.00 in0.0 mm
08:45 AM 69.1°F20.6°C 59.0°F15.0°C 70% 0.9 mph SE1.4 kmh SE 2.9 mph4.7 kmh 30.07 in1018.3 mb 0.00 in0.0 mm 0.00 in0.0 mm 0.00 in0.0 mm
08:50 AM 68.9°F20.5°C 59.0°F15.0°C 70% 0.9 mph SE1.4 kmh SE 2.9 mph4.7 kmh 30.07 in1018.3 mb 0.00 in0.0 mm 0.00 in0.0 mm 0.00 in0.0 mm
08:55 AM 69.1°F20.6°C 59.0°F15.0°C 70% 0.4 mph SE0.6 kmh SE 1.6 mph2.6 kmh 30.07 in1018.3 mb 0.00 in0.0 mm 0.00 in0.0 mm 0.00 in0.0 mm
09:00 AM 69.8°F21.0°C 59.0°F15.0°C 69% 0.2 mph SSE0.3 kmh SSE 1.1 mph1.8 kmh 30.07 in1018.3 mb 0.00 in0.0 mm 0.00 in0.0 mm 0.00 in0.0 mm
09:05 AM 71.1°F21.7°C 60.8°F16.0°C 68% 0.5 mph SSE0.8 kmh SSE 2.5 mph4.0 kmh 30.07 in1018.3 mb 0.00 in0.0 mm 0.00 in0.0 mm 0.00 in0.0 mm
09:10 AM 72.3°F22.4°C 60.8°F16.0°C 67% 0.9 mph SSE1.4 kmh SSE 2.5 mph4.0 kmh 30.07 in1018.3 mb 0.00 in0.0 mm 0.00 in0.0 mm 0.00 in0.0 mm
09:15 AM 73.4°F23.0°C 62.6°F17.0°C 67% 0.9 mph SSE1.4 kmh SSE 2.0 mph3.2 kmh 30.07 in1018.3 mb 0.00 in0.0 mm 0.00 in0.0 mm 0.00 in0.0 mm
09:20 AM 74.3°F23.5°C 62.6°F17.0°C 66% 0.6 mph SW1.0 kmh SW 1.3 mph2.1 kmh 30.07 in1018.3 mb 0.00 in0.0 mm 0.00 in0.0 mm 0.00 in0.0 mm
09:25 AM 74.8°F23.8°C 62.6°F17.0°C 64% 0.7 mph SSW1.1 kmh SSW 2.2 mph3.5 kmh 30.07 in1018.3 mb 0.00 in0.0 mm 0.00 in0.0 mm 0.00 in0.0 mm
09:30 AM 75.7°F24.3°C 62.6°F17.0°C 63% 1.7 mph SE2.7 kmh SE 3.1 mph5.0 kmh 30.07 in1018.3 mb 0.00 in0.0 mm 0.00 in0.0 mm 0.00 in0.0 mm
09:35 AM 76.8°F24.9°C 62.6°F17.0°C 62% 2.3 mph SE3.7 kmh SE 3.8 mph6.1 kmh 30.07 in1018.3 mb 0.00 in0.0 mm 0.00 in0.0 mm 0.00 in0.0 mm
09:40 AM 77.7°F25.4°C 62.6°F17.0°C 60% 1.6 mph SE2.6 kmh SE 3.8 mph6.1 kmh 30.09 in1019.0 mb 0.00 in0.0 mm 0.00 in0.0 mm 0.00 in0.0 mm
09:45 AM 78.3°F25.7°C 64.4°F18.0°C 60% 1.1 mph S1.8 kmh S 2.7 mph4.3 kmh 30.09 in1019.0 mb 0.00 in0.0 mm 0.00 in0.0 mm 0.00 in0.0 mm
09:50 AM 79.0°F26.1°C 64.4°F18.0°C 59% 0.9 mph SSW1.4 kmh SSW 2.5 mph4.0 kmh 30.09 in1019.0 mb 0.00 in0.0 mm 0.00 in0.0 mm 0.00 in0.0 mm
09:55 AM 80.6°F27.0°C 64.4°F18.0°C 57% 0.7 mph SE1.1 kmh SE 2.5 mph4.0 kmh 30.07 in1018.3 mb 0.00 in0.0 mm 0.00 in0.0 mm 0.00 in0.0 mm
10:00 AM 81.5°F27.5°C 64.4°F18.0°C 56% 1.2 mph SSE1.9 kmh SSE 2.7 mph4.3 kmh 30.07 in1018.3 mb 0.00 in0.0 mm 0.00 in0.0 mm 0.00 in0.0 mm
10:05 AM 82.0°F27.8°C 64.4°F18.0°C 55% 2.1 mph SE3.4 kmh SE 6.0 mph9.7 kmh 30.07 in1018.3 mb 0.00 in0.0 mm 0.00 in0.0 mm 0.00 in0.0 mm
10:10 AM 82.6°F28.1°C 64.4°F18.0°C 55% 2.6 mph SE4.2 kmh SE 6.0 mph9.7 kmh 30.07 in1018.3 mb 0.00 in0.0 mm 0.00 in0.0 mm 0.00 in0.0 mm
10:15 AM 83.3°F28.5°C 66.2°F19.0°C 54% 1.9 mph SE3.1 kmh SE 3.6 mph5.8 kmh 30.07 in1018.3 mb 0.00 in0.0 mm 0.00 in0.0 mm 0.00 in0.0 mm
10:20 AM 84.2°F29.0°C 66.2°F19.0°C 52% 0.9 mph SE1.4 kmh SE 2.5 mph4.0 kmh 30.07 in1018.3 mb 0.00 in0.0 mm 0.00 in0.0 mm 0.00 in0.0 mm
10:25 AM 84.9°F29.4°C 66.2°F19.0°C 52% 0.4 mph ESE0.6 kmh ESE 2.0 mph3.2 kmh 30.07 in1018.3 mb 0.00 in0.0 mm 0.00 in0.0 mm 0.00 in0.0 mm
10:35 AM 86.2°F30.1°C 66.2°F19.0°C 50% 1.1 mph SSE1.8 kmh SSE 4.3 mph6.9 kmh 30.07 in1018.3 mb 0.00 in0.0 mm 0.00 in0.0 mm 0.00 in0.0 mm
10:40 AM 86.5°F30.3°C 66.2°F19.0°C 50% 1.5 mph SE2.4 kmh SE 4.3 mph6.9 kmh 30.07 in1018.3 mb 0.00 in0.0 mm 0.00 in0.0 mm 0.00 in0.0 mm
10:45 AM 87.3°F30.7°C 66.2°F19.0°C 49% 1.2 mph SSE1.9 kmh SSE 4.0 mph6.4 kmh 30.07 in1018.3 mb 0.00 in0.0 mm 0.00 in0.0 mm 0.00 in0.0 mm
10:50 AM 88.5°F31.4°C 66.2°F19.0°C 48% 0.7 mph SSE1.1 kmh SSE 2.9 mph4.7 kmh 30.07 in1018.3 mb 0.00 in0.0 mm 0.00 in0.0 mm 0.00 in0.0 mm
10:55 AM 89.4°F31.9°C 68.0°F20.0°C 47% 0.5 mph SSE0.8 kmh SSE 2.9 mph4.7 kmh 30.07 in1018.3 mb 0.00 in0.0 mm 0.00 in0.0 mm 0.00 in0.0 mm
11:00 AM 90.3°F32.4°C 68.0°F20.0°C 46% 1.0 mph SSE1.6 kmh SSE 3.1 mph5.0 kmh 30.07 in1018.3 mb 0.00 in0.0 mm 0.00 in0.0 mm 0.00 in0.0 mm
11:05 AM 91.2°F32.9°C 68.0°F20.0°C 46% 1.3 mph SSE2.1 kmh SSE 3.1 mph5.0 kmh 30.07 in1018.3 mb 0.00 in0.0 mm 0.00 in0.0 mm 0.00 in0.0 mm
11:10 AM 91.2°F32.9°C 68.0°F20.0°C 45% 1.3 mph SW2.1 kmh SW 3.1 mph5.0 kmh 30.07 in1018.3 mb 0.00 in0.0 mm 0.00 in0.0 mm 0.00 in0.0 mm
11:15 AM 91.9°F33.3°C 68.0°F20.0°C 44% 1.2 mph SW1.9 kmh SW 2.7 mph4.3 kmh 30.07 in1018.3 mb 0.00 in0.0 mm 0.00 in0.0 mm 0.00 in0.0 mm
11:20 AM 92.8°F33.8°C 68.0°F20.0°C 44% 1.6 mph E2.6 kmh E 2.9 mph4.7 kmh 30.07 in1018.3 mb 0.00 in0.0 mm 0.00 in0.0 mm 0.00 in0.0 mm
11:25 AM 92.5°F33.6°C 66.2°F19.0°C 43% 2.0 mph ESE3.2 kmh ESE 3.8 mph6.1 kmh 30.07 in1018.3 mb 0.00 in0.0 mm 0.00 in0.0 mm 0.00 in0.0 mm
11:30 AM 92.5°F33.6°C 66.2°F19.0°C 42% 1.8 mph SE2.9 kmh SE 3.8 mph6.1 kmh 30.07 in1018.3 mb 0.00 in0.0 mm 0.00 in0.0 mm 0.00 in0.0 mm
11:35 AM 93.4°F34.1°C 66.2°F19.0°C 42% 2.4 mph S3.9 kmh S 5.6 mph9.0 kmh 30.07 in1018.3 mb 0.00 in0.0 mm 0.00 in0.0 mm 0.00 in0.0 mm
11:40 AM 93.4°F34.1°C 66.2°F19.0°C 42% 2.7 mph SSE4.3 kmh SSE 5.6 mph9.0 kmh 30.07 in1018.3 mb 0.00 in0.0 mm 0.00 in0.0 mm 0.00 in0.0 mm
11:45 AM 93.6°F34.2°C 66.2°F19.0°C 41% 2.7 mph SSE4.3 kmh SSE 7.8 mph12.6 kmh 30.07 in1018.3 mb 0.00 in0.0 mm 0.00 in0.0 mm 0.00 in0.0 mm
11:50 AM 93.6°F34.2°C 66.2°F19.0°C 41% 4.5 mph S7.2 kmh S 7.8 mph12.6 kmh 30.07 in1018.3 mb 0.00 in0.0 mm 0.00 in0.0 mm 0.00 in0.0 mm
11:55 AM 94.3°F34.6°C 68.0°F20.0°C 41% 4.2 mph S6.8 kmh S 7.8 mph12.6 kmh 30.07 in1018.3 mb 0.00 in0.0 mm 0.00 in0.0 mm 0.00 in0.0 mm
12:00 PM 94.3°F34.6°C 66.2°F19.0°C 40% 2.6 mph SW4.2 kmh SW 4.3 mph6.9 kmh 30.07 in1018.3 mb 0.00 in0.0 mm 0.00 in0.0 mm 0.00 in0.0 mm
12:05 PM 94.5°F34.7°C 68.0°F20.0°C 41% 3.4 mph SSW5.5 kmh SSW 10.5 mph16.9 kmh 30.07 in1018.3 mb 0.00 in0.0 mm 0.00 in0.0 mm 0.00 in0.0 mm
12:10 PM 94.6°F34.8°C 68.0°F20.0°C 41% 3.8 mph SSW6.1 kmh SSW 10.5 mph16.9 kmh 30.07 in1018.3 mb 0.00 in0.0 mm 0.00 in0.0 mm 0.00 in0.0 mm
12:15 PM 94.1°F34.5°C 66.2°F19.0°C 39% 3.4 mph S5.5 kmh S 5.8 mph9.3 kmh 30.07 in1018.3 mb 0.00 in0.0 mm 0.00 in0.0 mm 0.00 in0.0 mm
12:20 PM 94.6°F34.8°C 64.4°F18.0°C 38% 3.6 mph SSE5.8 kmh SSE 5.8 mph9.3 kmh 30.07 in1018.3 mb 0.00 in0.0 mm 0.00 in0.0 mm 0.00 in0.0 mm
12:25 PM 93.7°F34.3°C 66.2°F19.0°C 39% 3.7 mph SSE6.0 kmh SSE 6.0 mph9.7 kmh 30.07 in1018.3 mb 0.00 in0.0 mm 0.00 in0.0 mm 0.00 in0.0 mm
12:30 PM 93.9°F34.4°C 64.4°F18.0°C 38% 3.9 mph SSE6.3 kmh SSE 6.0 mph9.7 kmh 30.07 in1018.3 mb 0.00 in0.0 mm 0.00 in0.0 mm 0.00 in0.0 mm
12:35 PM 94.1°F34.5°C 64.4°F18.0°C 37% 4.3 mph SE6.9 kmh SE 8.7 mph14.0 kmh 30.07 in1018.3 mb 0.00 in0.0 mm 0.00 in0.0 mm 0.00 in0.0 mm
12:40 PM 94.5°F34.7°C 64.4°F18.0°C 37% 4.9 mph SE7.9 kmh SE 8.7 mph14.0 kmh 30.07 in1018.3 mb 0.00 in0.0 mm 0.00 in0.0 mm 0.00 in0.0 mm
12:45 PM 94.1°F34.5°C 64.4°F18.0°C 37% 4.8 mph SE7.7 kmh SE 7.2 mph11.6 kmh 30.07 in1018.3 mb 0.00 in0.0 mm 0.00 in0.0 mm 0.00 in0.0 mm
12:50 PM 93.9°F34.4°C 64.4°F18.0°C 37% 5.8 mph SSE9.3 kmh SSE 8.5 mph13.7 kmh 30.07 in1018.3 mb 0.00 in0.0 mm 0.00 in0.0 mm 0.00 in0.0 mm
12:55 PM 94.1°F34.5°C 64.4°F18.0°C 36% 5.6 mph SSE9.0 kmh SSE 8.5 mph13.7 kmh 30.07 in1018.3 mb 0.00 in0.0 mm 0.00 in0.0 mm 0.00 in0.0 mm
01:00 PM 93.9°F34.4°C 62.6°F17.0°C 36% 5.0 mph S8.0 kmh S 8.5 mph13.7 kmh 30.07 in1018.3 mb 0.00 in0.0 mm 0.00 in0.0 mm 0.00 in0.0 mm
01:05 PM 93.6°F34.2°C 62.6°F17.0°C 36% 5.0 mph S8.0 kmh S 6.9 mph11.1 kmh 30.07 in1018.3 mb 0.00 in0.0 mm 0.00 in0.0 mm 0.00 in0.0 mm
01:10 PM 94.1°F34.5°C 64.4°F18.0°C 36% 5.0 mph S8.0 kmh S 8.9 mph14.3 kmh 30.07 in1018.3 mb 0.00 in0.0 mm 0.00 in0.0 mm 0.00 in0.0 mm
01:15 PM 93.6°F34.2°C 62.6°F17.0°C 36% 3.9 mph S6.3 kmh S 8.9 mph14.3 kmh 30.07 in1018.3 mb 0.00 in0.0 mm 0.00 in0.0 mm 0.00 in0.0 mm
01:20 PM 94.3°F34.6°C 62.6°F17.0°C 35% 3.8 mph SE6.1 kmh SE 6.3 mph10.1 kmh 30.07 in1018.3 mb 0.00 in0.0 mm 0.00 in0.0 mm 0.00 in0.0 mm
01:25 PM 93.9°F34.4°C 60.8°F16.0°C 34% 4.0 mph SE6.4 kmh SE 5.6 mph9.0 kmh 30.07 in1018.3 mb 0.00 in0.0 mm 0.00 in0.0 mm 0.00 in0.0 mm
01:30 PM 93.4°F34.1°C 60.8°F16.0°C 34% 4.6 mph SSE7.4 kmh SSE 7.8 mph12.6 kmh 30.07 in1018.3 mb 0.00 in0.0 mm 0.00 in0.0 mm 0.00 in0.0 mm
01:35 PM 93.2°F34.0°C 60.8°F16.0°C 35% 5.1 mph S8.2 kmh S 7.8 mph12.6 kmh 30.07 in1018.3 mb 0.00 in0.0 mm 0.00 in0.0 mm 0.00 in0.0 mm
01:40 PM 93.2°F34.0°C 60.8°F16.0°C 35% 4.8 mph S7.7 kmh S 6.9 mph11.1 kmh 30.07 in1018.3 mb 0.00 in0.0 mm 0.00 in0.0 mm 0.00 in0.0 mm
01:45 PM 92.8°F33.8°C 60.8°F16.0°C 35% 4.3 mph SSE6.9 kmh SSE 6.0 mph9.7 kmh 30.07 in1018.3 mb 0.00 in0.0 mm 0.00 in0.0 mm 0.00 in0.0 mm
01:50 PM 93.2°F34.0°C 60.8°F16.0°C 35% 4.9 mph SE7.9 kmh SE 7.8 mph12.6 kmh 30.07 in1018.3 mb 0.00 in0.0 mm 0.00 in0.0 mm 0.00 in0.0 mm
01:55 PM 92.5°F33.6°C 60.8°F16.0°C 35% 6.2 mph SE10.0 kmh SE 11.2 mph18.0 kmh 30.07 in1018.3 mb 0.00 in0.0 mm 0.00 in0.0 mm 0.00 in0.0 mm
02:00 PM 92.3°F33.5°C 60.8°F16.0°C 35% 6.8 mph SE10.9 kmh SE 11.2 mph18.0 kmh 30.07 in1018.3 mb 0.00 in0.0 mm 0.00 in0.0 mm 0.00 in0.0 mm
02:05 PM 91.9°F33.3°C 60.8°F16.0°C 35% 6.9 mph SE11.1 kmh SE 9.8 mph15.8 kmh 30.07 in1018.3 mb 0.00 in0.0 mm 0.00 in0.0 mm 0.00 in0.0 mm
02:10 PM 91.6°F33.1°C 60.8°F16.0°C 35% 6.6 mph SE10.6 kmh SE 9.8 mph15.8 kmh 30.07 in1018.3 mb 0.00 in0.0 mm 0.00 in0.0 mm 0.00 in0.0 mm
02:15 PM 91.8°F33.2°C 60.8°F16.0°C 35% 5.8 mph ESE9.3 kmh ESE 8.7 mph14.0 kmh 30.07 in1018.3 mb 0.00 in0.0 mm 0.00 in0.0 mm 0.00 in0.0 mm
02:20 PM 91.4°F33.0°C 60.8°F16.0°C 35% 6.2 mph SE10.0 kmh SE 8.5 mph13.7 kmh 30.07 in1018.3 mb 0.00 in0.0 mm 0.00 in0.0 mm 0.00 in0.0 mm
02:25 PM 91.0°F32.8°C 59.0°F15.0°C 35% 6.9 mph SE11.1 kmh SE 8.5 mph13.7 kmh 30.07 in1018.3 mb 0.00 in0.0 mm 0.00 in0.0 mm 0.00 in0.0 mm
02:30 PM 90.5°F32.5°C 59.0°F15.0°C 35% 7.1 mph ESE11.4 kmh ESE 10.3 mph16.6 kmh 30.07 in1018.3 mb 0.00 in0.0 mm 0.00 in0.0 mm 0.00 in0.0 mm
02:35 PM 90.5°F32.5°C 59.0°F15.0°C 35% 6.3 mph SE10.1 kmh SE 10.3 mph16.6 kmh 30.07 in1018.3 mb 0.00 in0.0 mm 0.00 in0.0 mm 0.00 in0.0 mm
02:40 PM 90.3°F32.4°C 59.0°F15.0°C 35% 5.6 mph ESE9.0 kmh ESE 9.4 mph15.1 kmh 30.07 in1018.3 mb 0.00 in0.0 mm 0.00 in0.0 mm 0.00 in0.0 mm
02:45 PM 90.0°F32.2°C 59.0°F15.0°C 35% 5.8 mph ESE9.3 kmh ESE 9.4 mph15.1 kmh 30.07 in1018.3 mb 0.00 in0.0 mm 0.00 in0.0 mm 0.00 in0.0 mm
02:50 PM 89.2°F31.8°C 57.2°F14.0°C 35% 6.6 mph SE10.6 kmh SE 10.7 mph17.2 kmh 30.07 in1018.3 mb 0.00 in0.0 mm 0.00 in0.0 mm 0.00 in0.0 mm
02:55 PM 89.4°F31.9°C 59.0°F15.0°C 35% 6.2 mph SE10.0 kmh SE 10.7 mph17.2 kmh 30.07 in1018.3 mb 0.00 in0.0 mm 0.00 in0.0 mm 0.00 in0.0 mm
03:00 PM 89.1°F31.7°C 57.2°F14.0°C 35% 6.2 mph SE10.0 kmh SE 8.5 mph13.7 kmh 30.07 in1018.3 mb 0.00 in0.0 mm 0.00 in0.0 mm 0.00 in0.0 mm
03:05 PM 89.1°F31.7°C 57.2°F14.0°C 35% 5.9 mph SE9.5 kmh SE 8.5 mph13.7 kmh 30.07 in1018.3 mb 0.00 in0.0 mm 0.00 in0.0 mm 0.00 in0.0 mm
03:10 PM 89.1°F31.7°C 57.2°F14.0°C 35% 5.0 mph SE8.0 kmh SE 8.1 mph13.0 kmh 30.07 in1018.3 mb 0.00 in0.0 mm 0.00 in0.0 mm 0.00 in0.0 mm
03:15 PM 88.7°F31.5°C 57.2°F14.0°C 35% 5.1 mph SE8.2 kmh SE 7.4 mph11.9 kmh 30.07 in1018.3 mb 0.00 in0.0 mm 0.00 in0.0 mm 0.00 in0.0 mm
03:20 PM 88.5°F31.4°C 57.2°F14.0°C 35% 5.5 mph SE8.9 kmh SE 8.7 mph14.0 kmh 30.07 in1018.3 mb 0.00 in0.0 mm 0.00 in0.0 mm 0.00 in0.0 mm
03:25 PM 88.0°F31.1°C 57.2°F14.0°C 35% 6.3 mph SE10.1 kmh SE 8.7 mph14.0 kmh 30.07 in1018.3 mb 0.00 in0.0 mm 0.00 in0.0 mm 0.00 in0.0 mm
03:30 PM 87.6°F30.9°C 57.2°F14.0°C 35% 6.1 mph ESE9.8 kmh ESE 8.5 mph13.7 kmh 30.07 in1018.3 mb 0.00 in0.0 mm 0.00 in0.0 mm 0.00 in0.0 mm
03:35 PM 87.3°F30.7°C 55.4°F13.0°C 35% 6.2 mph ESE10.0 kmh ESE 8.5 mph13.7 kmh 30.07 in1018.3 mb 0.00 in0.0 mm 0.00 in0.0 mm 0.00 in0.0 mm
03:40 PM 86.7°F30.4°C 55.4°F13.0°C 35% 7.2 mph SE11.6 kmh SE 9.8 mph15.8 kmh 30.07 in1018.3 mb 0.00 in0.0 mm 0.00 in0.0 mm 0.00 in0.0 mm
03:45 PM 86.2°F30.1°C 55.4°F13.0°C 35% 6.9 mph SE11.1 kmh SE 9.8 mph15.8 kmh 30.07 in1018.3 mb 0.00 in0.0 mm 0.00 in0.0 mm 0.00 in0.0 mm
03:50 PM 85.6°F29.8°C 55.4°F13.0°C 36% 6.2 mph SE10.0 kmh SE 8.7 mph14.0 kmh 30.07 in1018.3 mb 0.00 in0.0 mm 0.00 in0.0 mm 0.00 in0.0 mm
03:55 PM 85.6°F29.8°C 55.4°F13.0°C 36% 6.6 mph SE10.6 kmh SE 8.5 mph13.7 kmh 30.07 in1018.3 mb 0.00 in0.0 mm 0.00 in0.0 mm 0.00 in0.0 mm
04:00 PM 85.1°F29.5°C 55.4°F13.0°C 36% 5.5 mph SE8.9 kmh SE 7.8 mph12.6 kmh 30.07 in1018.3 mb 0.00 in0.0 mm 0.00 in0.0 mm 0.00 in0.0 mm
04:05 PM 84.4°F29.1°C 55.4°F13.0°C 36% 4.8 mph SE7.7 kmh SE 6.5 mph10.5 kmh 30.07 in1018.3 mb 0.00 in0.0 mm 0.00 in0.0 mm 0.00 in0.0 mm
04:10 PM 84.2°F29.0°C 55.4°F13.0°C 37% 5.2 mph SE8.4 kmh SE 6.5 mph10.5 kmh 30.07 in1018.3 mb 0.00 in0.0 mm 0.00 in0.0 mm 0.00 in0.0 mm
04:15 PM 83.7°F28.7°C 55.4°F13.0°C 37% 6.3 mph SE10.1 kmh SE 9.8 mph15.8 kmh 30.07 in1018.3 mb 0.00 in0.0 mm 0.00 in0.0 mm 0.00 in0.0 mm
04:20 PM 83.3°F28.5°C 55.4°F13.0°C 37% 6.8 mph SE10.9 kmh SE 9.8 mph15.8 kmh 30.07 in1018.3 mb 0.00 in0.0 mm 0.00 in0.0 mm 0.00 in0.0 mm
04:25 PM 82.9°F28.3°C 55.4°F13.0°C 37% 5.3 mph ESE8.5 kmh ESE 9.8 mph15.8 kmh 30.07 in1018.3 mb 0.00 in0.0 mm 0.00 in0.0 mm 0.00 in0.0 mm
04:30 PM 82.8°F28.2°C 55.4°F13.0°C 37% 5.2 mph ESE8.4 kmh ESE 7.8 mph12.6 kmh 30.07 in1018.3 mb 0.00 in0.0 mm 0.00 in0.0 mm 0.00 in0.0 mm
04:35 PM 82.6°F28.1°C 53.6°F12.0°C 37% 6.1 mph E9.8 kmh E 7.8 mph12.6 kmh 30.07 in1018.3 mb 0.00 in0.0 mm 0.00 in0.0 mm 0.00 in0.0 mm
04:40 PM 82.4°F28.0°C 53.6°F12.0°C 37% 5.3 mph E8.5 kmh E 7.6 mph12.2 kmh 30.07 in1018.3 mb 0.00 in0.0 mm 0.00 in0.0 mm 0.00 in0.0 mm
04:45 PM 82.0°F27.8°C 53.6°F12.0°C 37% 5.5 mph E8.9 kmh E 7.8 mph12.6 kmh 30.07 in1018.3 mb 0.00 in0.0 mm 0.00 in0.0 mm 0.00 in0.0 mm
04:50 PM 81.7°F27.6°C 53.6°F12.0°C 38% 5.6 mph ESE9.0 kmh ESE 8.7 mph14.0 kmh 30.07 in1018.3 mb 0.00 in0.0 mm 0.00 in0.0 mm 0.00 in0.0 mm
04:55 PM 81.3°F27.4°C 53.6°F12.0°C 38% 4.6 mph E7.4 kmh E 8.7 mph14.0 kmh 30.07 in1018.3 mb 0.00 in0.0 mm 0.00 in0.0 mm 0.00 in0.0 mm
05:00 PM 81.1°F27.3°C 53.6°F12.0°C 38% 5.0 mph E8.0 kmh E 8.5 mph13.7 kmh 30.07 in1018.3 mb 0.00 in0.0 mm 0.00 in0.0 mm 0.00 in0.0 mm
05:05 PM 80.8°F27.1°C 53.6°F12.0°C 38% 5.3 mph ESE8.5 kmh ESE 8.9 mph14.3 kmh 30.07 in1018.3 mb 0.00 in0.0 mm 0.00 in0.0 mm 0.00 in0.0 mm
05:10 PM 80.4°F26.9°C 53.6°F12.0°C 39% 5.3 mph ESE8.5 kmh ESE 8.9 mph14.3 kmh 30.07 in1018.3 mb 0.00 in0.0 mm 0.00 in0.0 mm 0.00 in0.0 mm
05:15 PM 80.2°F26.8°C 53.6°F12.0°C 39% 4.9 mph ESE7.9 kmh ESE 8.7 mph14.0 kmh 30.07 in1018.3 mb 0.00 in0.0 mm 0.00 in0.0 mm 0.00 in0.0 mm
05:20 PM 79.9°F26.6°C 53.6°F12.0°C 39% 4.7 mph ESE7.6 kmh ESE 7.8 mph12.6 kmh 30.07 in1018.3 mb 0.00 in0.0 mm 0.00 in0.0 mm 0.00 in0.0 mm
05:25 PM 79.5°F26.4°C 53.6°F12.0°C 40% 4.9 mph ESE7.9 kmh ESE 7.8 mph12.6 kmh 30.07 in1018.3 mb 0.00 in0.0 mm 0.00 in0.0 mm 0.00 in0.0 mm
05:30 PM 79.2°F26.2°C 53.6°F12.0°C 40% 4.5 mph ESE7.2 kmh ESE 7.8 mph12.6 kmh 30.07 in1018.3 mb 0.00 in0.0 mm 0.00 in0.0 mm 0.00 in0.0 mm
05:35 PM 79.0°F26.1°C 53.6°F12.0°C 40% 4.9 mph ESE7.9 kmh ESE 8.5 mph13.7 kmh 30.07 in1018.3 mb 0.00 in0.0 mm 0.00 in0.0 mm 0.00 in0.0 mm
05:40 PM 78.8°F26.0°C 53.6°F12.0°C 40% 4.0 mph ESE6.4 kmh ESE 8.5 mph13.7 kmh 30.07 in1018.3 mb 0.00 in0.0 mm 0.00 in0.0 mm 0.00 in0.0 mm
05:45 PM 78.4°F25.8°C 51.8°F11.0°C 40% 3.1 mph E5.0 kmh E 6.5 mph10.5 kmh 30.07 in1018.3 mb 0.00 in0.0 mm 0.00 in0.0 mm 0.00 in0.0 mm
05:50 PM 78.3°F25.7°C 51.8°F11.0°C 40% 3.6 mph E5.8 kmh E 6.5 mph10.5 kmh 30.07 in1018.3 mb 0.00 in0.0 mm 0.00 in0.0 mm 0.00 in0.0 mm
05:55 PM 77.9°F25.5°C 51.8°F11.0°C 40% 4.2 mph E6.8 kmh E 5.8 mph9.3 kmh 30.07 in1018.3 mb 0.00 in0.0 mm 0.00 in0.0 mm 0.00 in0.0 mm
06:00 PM 77.5°F25.3°C 51.8°F11.0°C 41% 3.8 mph E6.1 kmh E 6.5 mph10.5 kmh 30.07 in1018.3 mb 0.00 in0.0 mm 0.00 in0.0 mm 0.00 in0.0 mm
06:05 PM 77.4°F25.2°C 51.8°F11.0°C 41% 3.5 mph E5.6 kmh E 6.5 mph10.5 kmh 30.07 in1018.3 mb 0.00 in0.0 mm 0.00 in0.0 mm 0.00 in0.0 mm
06:10 PM 77.0°F25.0°C 51.8°F11.0°C 41% 3.4 mph ESE5.5 kmh ESE 7.2 mph11.6 kmh 30.07 in1018.3 mb 0.00 in0.0 mm 0.00 in0.0 mm 0.00 in0.0 mm
06:15 PM 76.8°F24.9°C 51.8°F11.0°C 42% 4.2 mph SE6.8 kmh SE 7.2 mph11.6 kmh 30.07 in1018.3 mb 0.00 in0.0 mm 0.00 in0.0 mm 0.00 in0.0 mm
06:20 PM 76.5°F24.7°C 51.8°F11.0°C 42% 4.1 mph SE6.6 kmh SE 6.9 mph11.1 kmh 30.07 in1018.3 mb 0.00 in0.0 mm 0.00 in0.0 mm 0.00 in0.0 mm
06:25 PM 75.9°F24.4°C 51.8°F11.0°C 42% 3.4 mph ESE5.5 kmh ESE 4.0 mph6.4 kmh 30.07 in1018.3 mb 0.00 in0.0 mm 0.00 in0.0 mm 0.00 in0.0 mm
06:30 PM 75.7°F24.3°C 51.8°F11.0°C 42% 3.6 mph ESE5.8 kmh ESE 6.0 mph9.7 kmh 30.07 in1018.3 mb 0.00 in0.0 mm 0.00 in0.0 mm 0.00 in0.0 mm
06:35 PM 75.6°F24.2°C 51.8°F11.0°C 42% 3.3 mph E5.3 kmh E 6.0 mph9.7 kmh 30.07 in1018.3 mb 0.00 in0.0 mm 0.00 in0.0 mm 0.00 in0.0 mm
06:40 PM 75.2°F24.0°C 50.0°F10.0°C 42% 2.9 mph E4.7 kmh E 4.0 mph6.4 kmh 30.07 in1018.3 mb 0.00 in0.0 mm 0.00 in0.0 mm 0.00 in0.0 mm
06:45 PM 74.8°F23.8°C 50.0°F10.0°C 42% 3.2 mph E5.1 kmh E 5.4 mph8.7 kmh 30.07 in1018.3 mb 0.00 in0.0 mm 0.00 in0.0 mm 0.00 in0.0 mm
06:50 PM 74.5°F23.6°C 50.0°F10.0°C 42% 4.1 mph ESE6.6 kmh ESE 7.6 mph12.2 kmh 30.07 in1018.3 mb 0.00 in0.0 mm 0.00 in0.0 mm 0.00 in0.0 mm
06:55 PM 74.3°F23.5°C 50.0°F10.0°C 42% 5.3 mph SE8.5 kmh SE 7.6 mph12.2 kmh 30.07 in1018.3 mb 0.00 in0.0 mm 0.00 in0.0 mm 0.00 in0.0 mm
07:00 PM 74.1°F23.4°C 50.0°F10.0°C 42% 5.2 mph SE8.4 kmh SE 7.6 mph12.2 kmh 30.07 in1018.3 mb 0.00 in0.0 mm 0.00 in0.0 mm 0.00 in0.0 mm
07:05 PM 73.9°F23.3°C 50.0°F10.0°C 42% 4.5 mph ESE7.2 kmh ESE 7.4 mph11.9 kmh 30.07 in1018.3 mb 0.00 in0.0 mm 0.00 in0.0 mm 0.00 in0.0 mm
07:10 PM 73.4°F23.0°C 48.2°F9.0°C 42% 5.4 mph ESE8.7 kmh ESE 7.4 mph11.9 kmh 30.07 in1018.3 mb 0.00 in0.0 mm 0.00 in0.0 mm 0.00 in0.0 mm
07:15 PM 73.2°F22.9°C 50.0°F10.0°C 44% 4.9 mph E7.9 kmh E 7.4 mph11.9 kmh 30.07 in1018.3 mb 0.00 in0.0 mm 0.00 in0.0 mm 0.00 in0.0 mm
07:20 PM 73.0°F22.8°C 50.0°F10.0°C 44% 4.3 mph E6.9 kmh E 6.3 mph10.1 kmh 30.07 in1018.3 mb 0.00 in0.0 mm 0.00 in0.0 mm 0.00 in0.0 mm
07:25 PM 72.9°F22.7°C 50.0°F10.0°C 44% 4.0 mph ESE6.4 kmh ESE 5.6 mph9.0 kmh 30.07 in1018.3 mb 0.00 in0.0 mm 0.00 in0.0 mm 0.00 in0.0 mm
07:30 PM 72.7°F22.6°C 50.0°F10.0°C 44% 4.6 mph SE7.4 kmh SE 6.3 mph10.1 kmh 30.07 in1018.3 mb 0.00 in0.0 mm 0.00 in0.0 mm 0.00 in0.0 mm
07:35 PM 72.5°F22.5°C 50.0°F10.0°C 44% 5.3 mph SSE8.5 kmh SSE 6.5 mph10.5 kmh 30.07 in1018.3 mb 0.00 in0.0 mm 0.00 in0.0 mm 0.00 in0.0 mm
07:40 PM 72.3°F22.4°C 50.0°F10.0°C 44% 4.5 mph SE7.2 kmh SE 6.5 mph10.5 kmh 30.07 in1018.3 mb 0.00 in0.0 mm 0.00 in0.0 mm 0.00 in0.0 mm
07:45 PM 72.1°F22.3°C 50.0°F10.0°C 44% 4.4 mph SE7.1 kmh SE 6.0 mph9.7 kmh 30.07 in1018.3 mb 0.00 in0.0 mm 0.00 in0.0 mm 0.00 in0.0 mm
07:50 PM 72.0°F22.2°C 50.0°F10.0°C 44% 3.9 mph ESE6.3 kmh ESE 6.0 mph9.7 kmh 30.07 in1018.3 mb 0.00 in0.0 mm 0.00 in0.0 mm 0.00 in0.0 mm
07:55 PM 71.8°F22.1°C 50.0°F10.0°C 45% 3.5 mph E5.6 kmh E 4.0 mph6.4 kmh 30.07 in1018.3 mb 0.00 in0.0 mm 0.00 in0.0 mm 0.00 in0.0 mm
08:00 PM 71.4°F21.9°C 50.0°F10.0°C 45% 3.5 mph ESE5.6 kmh ESE 4.9 mph7.9 kmh 30.07 in1018.3 mb 0.00 in0.0 mm 0.00 in0.0 mm 0.00 in0.0 mm
08:05 PM 71.4°F21.9°C 50.0°F10.0°C 46% 3.1 mph ESE5.0 kmh ESE 4.9 mph7.9 kmh 30.07 in1018.3 mb 0.00 in0.0 mm 0.00 in0.0 mm 0.00 in0.0 mm
08:10 PM 71.1°F21.7°C 50.0°F10.0°C 46% 3.2 mph E5.1 kmh E 5.4 mph8.7 kmh 30.07 in1018.3 mb 0.00 in0.0 mm 0.00 in0.0 mm 0.00 in0.0 mm
08:15 PM 70.9°F21.6°C 50.0°F10.0°C 46% 3.2 mph E5.1 kmh E 5.4 mph8.7 kmh 30.07 in1018.3 mb 0.00 in0.0 mm 0.00 in0.0 mm 0.00 in0.0 mm
08:20 PM 70.9°F21.6°C 50.0°F10.0°C 46% 3.7 mph E6.0 kmh E 6.5 mph10.5 kmh 30.07 in1018.3 mb 0.00 in0.0 mm 0.00 in0.0 mm 0.00 in0.0 mm
08:25 PM 70.7°F21.5°C 50.0°F10.0°C 47% 3.7 mph E6.0 kmh E 6.5 mph10.5 kmh 30.07 in1018.3 mb 0.00 in0.0 mm 0.00 in0.0 mm 0.00 in0.0 mm
08:30 PM 70.5°F21.4°C 50.0°F10.0°C 47% 3.1 mph E5.0 kmh E 5.4 mph8.7 kmh 30.07 in1018.3 mb 0.00 in0.0 mm 0.00 in0.0 mm 0.00 in0.0 mm
08:35 PM 70.3°F21.3°C 50.0°F10.0°C 47% 3.0 mph E4.8 kmh E 4.3 mph6.9 kmh 30.07 in1018.3 mb 0.00 in0.0 mm 0.00 in0.0 mm 0.00 in0.0 mm
08:40 PM 70.2°F21.2°C 50.0°F10.0°C 47% 3.0 mph ESE4.8 kmh ESE 4.3 mph6.9 kmh 30.07 in1018.3 mb 0.00 in0.0 mm 0.00 in0.0 mm 0.00 in0.0 mm
08:45 PM 70.2°F21.2°C 50.0°F10.0°C 47% 3.4 mph E5.5 kmh E 6.5 mph10.5 kmh 30.07 in1018.3 mb 0.00 in0.0 mm 0.00 in0.0 mm 0.00 in0.0 mm
08:50 PM 70.0°F21.1°C 50.0°F10.0°C 48% 3.3 mph E5.3 kmh E 6.5 mph10.5 kmh 30.07 in1018.3 mb 0.00 in0.0 mm 0.00 in0.0 mm 0.00 in0.0 mm
08:55 PM 69.8°F21.0°C 50.0°F10.0°C 48% 2.7 mph E4.3 kmh E 3.6 mph5.8 kmh 30.07 in1018.3 mb 0.00 in0.0 mm 0.00 in0.0 mm 0.00 in0.0 mm
09:00 PM 69.8°F21.0°C 50.0°F10.0°C 48% 2.7 mph E4.3 kmh E 3.8 mph6.1 kmh 30.07 in1018.3 mb 0.00 in0.0 mm 0.00 in0.0 mm 0.00 in0.0 mm
09:05 PM 69.6°F20.9°C 50.0°F10.0°C 49% 2.7 mph ESE4.3 kmh ESE 3.8 mph6.1 kmh 30.07 in1018.3 mb 0.00 in0.0 mm 0.00 in0.0 mm 0.00 in0.0 mm
09:10 PM 69.6°F20.9°C 50.0°F10.0°C 49% 2.7 mph ESE4.3 kmh ESE 3.8 mph6.1 kmh 30.07 in1018.3 mb 0.00 in0.0 mm 0.00 in0.0 mm 0.00 in0.0 mm
09:15 PM 69.4°F20.8°C 50.0°F10.0°C 49% 2.5 mph E4.0 kmh E 3.6 mph5.8 kmh 30.07 in1018.3 mb 0.00 in0.0 mm 0.00 in0.0 mm 0.00 in0.0 mm
09:20 PM 69.3°F20.7°C 50.0°F10.0°C 50% 2.4 mph E3.9 kmh E 3.8 mph6.1 kmh 30.07 in1018.3 mb 0.00 in0.0 mm 0.00 in0.0 mm 0.00 in0.0 mm
09:25 PM 69.3°F20.7°C 50.0°F10.0°C 50% 2.6 mph E4.2 kmh E 4.5 mph7.2 kmh 30.07 in1018.3 mb 0.00 in0.0 mm 0.00 in0.0 mm 0.00 in0.0 mm
09:30 PM 69.1°F20.6°C 50.0°F10.0°C 50% 2.6 mph E4.2 kmh E 4.5 mph7.2 kmh 30.07 in1018.3 mb 0.00 in0.0 mm 0.00 in0.0 mm 0.00 in0.0 mm
09:35 PM 68.9°F20.5°C 50.0°F10.0°C 50% 2.5 mph E4.0 kmh E 3.4 mph5.5 kmh 30.07 in1018.3 mb 0.00 in0.0 mm 0.00 in0.0 mm 0.00 in0.0 mm
09:40 PM 68.7°F20.4°C 50.0°F10.0°C 50% 2.5 mph E4.0 kmh E 3.4 mph5.5 kmh 30.07 in1018.3 mb 0.00 in0.0 mm 0.00 in0.0 mm 0.00 in0.0 mm
09:45 PM 68.4°F20.2°C 50.0°F10.0°C 51% 2.7 mph E4.3 kmh E 3.6 mph5.8 kmh 30.07 in1018.3 mb 0.00 in0.0 mm 0.00 in0.0 mm 0.00 in0.0 mm
09:50 PM 68.2°F20.1°C 50.0°F10.0°C 51% 2.5 mph E4.0 kmh E 3.6 mph5.8 kmh 30.07 in1018.3 mb 0.00 in0.0 mm 0.00 in0.0 mm 0.00 in0.0 mm
09:55 PM 68.0°F20.0°C 50.0°F10.0°C 51% 2.2 mph E3.5 kmh E 2.9 mph4.7 kmh 30.07 in1018.3 mb 0.00 in0.0 mm 0.00 in0.0 mm 0.00 in0.0 mm
10:00 PM 67.8°F19.9°C 50.0°F10.0°C 52% 2.4 mph E3.9 kmh E 3.1 mph5.0 kmh 30.07 in1018.3 mb 0.00 in0.0 mm 0.00 in0.0 mm 0.00 in0.0 mm
10:05 PM 67.6°F19.8°C 50.0°F10.0°C 52% 1.6 mph E2.6 kmh E 3.1 mph5.0 kmh 30.07 in1018.3 mb 0.00 in0.0 mm 0.00 in0.0 mm 0.00 in0.0 mm
10:10 PM 67.3°F19.6°C 50.0°F10.0°C 52% 0.8 mph E1.3 kmh E 2.5 mph4.0 kmh 30.07 in1018.3 mb 0.00 in0.0 mm 0.00 in0.0 mm 0.00 in0.0 mm
10:15 PM 66.9°F19.4°C 50.0°F10.0°C 53% 0.8 mph ENE1.3 kmh ENE 2.0 mph3.2 kmh 30.07 in1018.3 mb 0.00 in0.0 mm 0.00 in0.0 mm 0.00 in0.0 mm
10:20 PM 67.1°F19.5°C 50.0°F10.0°C 53% 1.6 mph ENE2.6 kmh ENE 2.9 mph4.7 kmh 30.07 in1018.3 mb 0.00 in0.0 mm 0.00 in0.0 mm 0.00 in0.0 mm
10:25 PM 66.9°F19.4°C 50.0°F10.0°C 53% 1.9 mph ENE3.1 kmh ENE 2.9 mph4.7 kmh 30.07 in1018.3 mb 0.00 in0.0 mm 0.00 in0.0 mm 0.00 in0.0 mm
10:30 PM 66.6°F19.2°C 50.0°F10.0°C 53% 1.4 mph NE2.3 kmh NE 2.9 mph4.7 kmh 30.07 in1018.3 mb 0.00 in0.0 mm 0.00 in0.0 mm 0.00 in0.0 mm
10:35 PM 66.4°F19.1°C 50.0°F10.0°C 54% 1.7 mph ENE2.7 kmh ENE 3.4 mph5.5 kmh 30.07 in1018.3 mb 0.00 in0.0 mm 0.00 in0.0 mm 0.00 in0.0 mm
10:40 PM 66.2°F19.0°C 50.0°F10.0°C 54% 1.9 mph E3.1 kmh E 3.4 mph5.5 kmh 30.07 in1018.3 mb 0.00 in0.0 mm 0.00 in0.0 mm 0.00 in0.0 mm
10:45 PM 66.0°F18.9°C 50.0°F10.0°C 55% 2.2 mph ESE3.5 kmh ESE 5.6 mph9.0 kmh 30.07 in1018.3 mb 0.00 in0.0 mm 0.00 in0.0 mm 0.00 in0.0 mm
10:50 PM 66.9°F19.4°C 50.0°F10.0°C 53% 3.4 mph SE5.5 kmh SE 5.6 mph9.0 kmh 30.07 in1018.3 mb 0.00 in0.0 mm 0.00 in0.0 mm 0.00 in0.0 mm
10:55 PM 66.7°F19.3°C 50.0°F10.0°C 53% 3.4 mph SE5.5 kmh SE 5.6 mph9.0 kmh 30.07 in1018.3 mb 0.00 in0.0 mm 0.00 in0.0 mm 0.00 in0.0 mm
11:00 PM 66.7°F19.3°C 50.0°F10.0°C 53% 2.9 mph SE4.7 kmh SE 4.0 mph6.4 kmh 30.07 in1018.3 mb 0.00 in0.0 mm 0.00 in0.0 mm 0.00 in0.0 mm
11:05 PM 66.9°F19.4°C 50.0°F10.0°C 53% 3.2 mph SE5.1 kmh SE 4.0 mph6.4 kmh 30.07 in1018.3 mb 0.00 in0.0 mm 0.00 in0.0 mm 0.00 in0.0 mm
11:10 PM 67.1°F19.5°C 50.0°F10.0°C 53% 3.3 mph ESE5.3 kmh ESE 5.4 mph8.7 kmh 30.07 in1018.3 mb 0.00 in0.0 mm 0.00 in0.0 mm 0.00 in0.0 mm
11:15 PM 67.6°F19.8°C 50.0°F10.0°C 53% 3.8 mph SE6.1 kmh SE 5.4 mph8.7 kmh 30.07 in1018.3 mb 0.00 in0.0 mm 0.00 in0.0 mm 0.00 in0.0 mm
11:20 PM 67.3°F19.6°C 50.0°F10.0°C 53% 3.2 mph SE5.1 kmh SE 5.4 mph8.7 kmh 30.07 in1018.3 mb 0.00 in0.0 mm 0.00 in0.0 mm 0.00 in0.0 mm
11:25 PM 66.7°F19.3°C 50.0°F10.0°C 53% 1.5 mph SSE2.4 kmh SSE 4.0 mph6.4 kmh 30.07 in1018.3 mb 0.00 in0.0 mm 0.00 in0.0 mm 0.00 in0.0 mm
11:30 PM 66.4°F19.1°C 50.0°F10.0°C 54% 0.6 mph SSE1.0 kmh SSE 2.2 mph3.5 kmh 30.07 in1018.3 mb 0.00 in0.0 mm 0.00 in0.0 mm 0.00 in0.0 mm
11:35 PM 65.8°F18.8°C 48.2°F9.0°C 55% 0.5 mph S0.8 kmh S 2.2 mph3.5 kmh 30.07 in1018.3 mb 0.00 in0.0 mm 0.00 in0.0 mm 0.00 in0.0 mm
11:40 PM 65.7°F18.7°C 50.0°F10.0°C 56% 0.2 mph W0.3 kmh W 1.1 mph1.8 kmh 30.07 in1018.3 mb 0.00 in0.0 mm 0.00 in0.0 mm 0.00 in0.0 mm
11:45 PM 65.3°F18.5°C 50.0°F10.0°C 57% 0.2 mph ENE0.3 kmh ENE 1.1 mph1.8 kmh 30.07 in1018.3 mb 0.00 in0.0 mm 0.00 in0.0 mm 0.00 in0.0 mm
11:50 PM 65.1°F18.4°C 50.0°F10.0°C 58% 0.8 mph ENE1.3 kmh ENE 2.0 mph3.2 kmh 30.07 in1018.3 mb 0.00 in0.0 mm 0.00 in0.0 mm 0.00 in0.0 mm
11:55 PM 64.9°F18.3°C 50.0°F10.0°C 58% 0.6 mph ENE1.0 kmh ENE 2.0 mph3.2 kmh 30.07 in1018.3 mb 0.00 in0.0 mm 0.00 in0.0 mm 0.00 in0.0 mm